sensor_id;sensor_type;location;lat;lon;timestamp;P1;durP1;ratioP1;P2;durP2;ratioP2
18752;SDS011;9505;50.882;5.350;2024-02-21T00:00:47;72.55;;;14.73;;
18752;SDS011;9505;50.882;5.350;2024-02-21T00:03:13;59.42;;;12.85;;
18752;SDS011;9505;50.882;5.350;2024-02-21T00:05:38;64.70;;;15.13;;
18752;SDS011;9505;50.882;5.350;2024-02-21T00:08:04;73.05;;;14.57;;
18752;SDS011;9505;50.882;5.350;2024-02-21T00:10:30;60.10;;;13.38;;
18752;SDS011;9505;50.882;5.350;2024-02-21T00:12:57;71.18;;;14.52;;
18752;SDS011;9505;50.882;5.350;2024-02-21T00:15:24;66.13;;;13.50;;
18752;SDS011;9505;50.882;5.350;2024-02-21T00:17:50;66.65;;;14.43;;
18752;SDS011;9505;50.882;5.350;2024-02-21T00:20:16;68.85;;;13.75;;
18752;SDS011;9505;50.882;5.350;2024-02-21T00:22:42;64.88;;;15.00;;
18752;SDS011;9505;50.882;5.350;2024-02-21T00:25:08;51.00;;;12.88;;
18752;SDS011;9505;50.882;5.350;2024-02-21T00:27:34;66.07;;;17.90;;
18752;SDS011;9505;50.882;5.350;2024-02-21T00:30:00;58.92;;;13.30;;
18752;SDS011;9505;50.882;5.350;2024-02-21T00:32:25;54.53;;;12.73;;
18752;SDS011;9505;50.882;5.350;2024-02-21T00:34:51;63.35;;;13.98;;
18752;SDS011;9505;50.882;5.350;2024-02-21T00:37:17;69.40;;;13.38;;
18752;SDS011;9505;50.882;5.350;2024-02-21T00:39:42;58.15;;;13.43;;
18752;SDS011;9505;50.882;5.350;2024-02-21T00:42:08;50.97;;;11.55;;
18752;SDS011;9505;50.882;5.350;2024-02-21T00:44:34;52.75;;;12.23;;
18752;SDS011;9505;50.882;5.350;2024-02-21T00:46:59;66.35;;;14.05;;
18752;SDS011;9505;50.882;5.350;2024-02-21T00:49:25;62.65;;;12.73;;
18752;SDS011;9505;50.882;5.350;2024-02-21T00:51:50;53.97;;;12.43;;
18752;SDS011;9505;50.882;5.350;2024-02-21T00:54:16;76.60;;;14.77;;
18752;SDS011;9505;50.882;5.350;2024-02-21T00:56:42;52.63;;;12.07;;
18752;SDS011;9505;50.882;5.350;2024-02-21T00:59:08;67.00;;;12.40;;
18752;SDS011;9505;50.882;5.350;2024-02-21T01:01:34;61.53;;;13.05;;
18752;SDS011;9505;50.882;5.350;2024-02-21T01:03:59;78.00;;;14.23;;
18752;SDS011;9505;50.882;5.350;2024-02-21T01:06:25;57.17;;;12.40;;
18752;SDS011;9505;50.882;5.350;2024-02-21T01:08:51;59.28;;;11.57;;
18752;SDS011;9505;50.882;5.350;2024-02-21T01:11:16;58.38;;;11.93;;
18752;SDS011;9505;50.882;5.350;2024-02-21T01:13:42;51.08;;;9.80;;
18752;SDS011;9505;50.882;5.350;2024-02-21T01:16:09;65.18;;;11.43;;
18752;SDS011;9505;50.882;5.350;2024-02-21T01:18:36;48.30;;;11.95;;
18752;SDS011;9505;50.882;5.350;2024-02-21T01:21:04;55.50;;;13.68;;
18752;SDS011;9505;50.882;5.350;2024-02-21T01:23:32;47.33;;;11.93;;
18752;SDS011;9505;50.882;5.350;2024-02-21T01:25:58;46.40;;;10.88;;
18752;SDS011;9505;50.882;5.350;2024-02-21T01:28:24;54.38;;;11.13;;
18752;SDS011;9505;50.882;5.350;2024-02-21T01:30:50;61.63;;;11.65;;
18752;SDS011;9505;50.882;5.350;2024-02-21T01:33:16;50.78;;;10.32;;
18752;SDS011;9505;50.882;5.350;2024-02-21T01:35:42;54.85;;;11.45;;
18752;SDS011;9505;50.882;5.350;2024-02-21T01:38:07;67.75;;;20.83;;
18752;SDS011;9505;50.882;5.350;2024-02-21T01:40:33;54.00;;;10.88;;
18752;SDS011;9505;50.882;5.350;2024-02-21T01:42:59;47.80;;;11.13;;
18752;SDS011;9505;50.882;5.350;2024-02-21T01:45:24;58.10;;;11.57;;
18752;SDS011;9505;50.882;5.350;2024-02-21T01:47:50;55.33;;;10.70;;
18752;SDS011;9505;50.882;5.350;2024-02-21T01:50:16;58.88;;;11.75;;
18752;SDS011;9505;50.882;5.350;2024-02-21T01:52:42;48.33;;;12.38;;
18752;SDS011;9505;50.882;5.350;2024-02-21T01:55:11;55.78;;;10.27;;
18752;SDS011;9505;50.882;5.350;2024-02-21T01:57:39;61.58;;;11.07;;
18752;SDS011;9505;50.882;5.350;2024-02-21T02:00:07;61.25;;;11.00;;
18752;SDS011;9505;50.882;5.350;2024-02-21T02:02:35;66.28;;;11.35;;
18752;SDS011;9505;50.882;5.350;2024-02-21T02:05:03;60.40;;;12.05;;
18752;SDS011;9505;50.882;5.350;2024-02-21T02:07:31;63.97;;;11.23;;
18752;SDS011;9505;50.882;5.350;2024-02-21T02:09:56;59.65;;;11.90;;
18752;SDS011;9505;50.882;5.350;2024-02-21T02:12:22;63.50;;;13.27;;
18752;SDS011;9505;50.882;5.350;2024-02-21T02:14:57;54.97;;;12.60;;
18752;SDS011;9505;50.882;5.350;2024-02-21T02:17:29;46.83;;;11.45;;
18752;SDS011;9505;50.882;5.350;2024-02-21T02:19:55;55.35;;;11.57;;
18752;SDS011;9505;50.882;5.350;2024-02-21T02:22:28;60.70;;;11.38;;
18752;SDS011;9505;50.882;5.350;2024-02-21T02:24:55;67.40;;;13.27;;
18752;SDS011;9505;50.882;5.350;2024-02-21T02:27:20;59.85;;;11.73;;
18752;SDS011;9505;50.882;5.350;2024-02-21T02:29:48;64.90;;;12.18;;
18752;SDS011;9505;50.882;5.350;2024-02-21T02:32:13;58.83;;;11.45;;
18752;SDS011;9505;50.882;5.350;2024-02-21T02:34:39;56.28;;;10.60;;
18752;SDS011;9505;50.882;5.350;2024-02-21T02:37:05;58.35;;;11.70;;
18752;SDS011;9505;50.882;5.350;2024-02-21T02:39:30;73.38;;;12.52;;
18752;SDS011;9505;50.882;5.350;2024-02-21T02:41:56;61.40;;;16.90;;
18752;SDS011;9505;50.882;5.350;2024-02-21T02:44:21;59.00;;;13.32;;
18752;SDS011;9505;50.882;5.350;2024-02-21T02:46:47;66.40;;;11.02;;
18752;SDS011;9505;50.882;5.350;2024-02-21T02:49:13;66.18;;;11.70;;
18752;SDS011;9505;50.882;5.350;2024-02-21T02:51:42;60.03;;;13.75;;
18752;SDS011;9505;50.882;5.350;2024-02-21T02:54:08;46.90;;;9.77;;
18752;SDS011;9505;50.882;5.350;2024-02-21T02:56:34;60.40;;;11.80;;
18752;SDS011;9505;50.882;5.350;2024-02-21T02:59:00;48.40;;;11.00;;
18752;SDS011;9505;50.882;5.350;2024-02-21T03:01:25;53.80;;;11.25;;
18752;SDS011;9505;50.882;5.350;2024-02-21T03:03:51;54.40;;;11.40;;
18752;SDS011;9505;50.882;5.350;2024-02-21T03:06:17;59.05;;;10.88;;
18752;SDS011;9505;50.882;5.350;2024-02-21T03:08:42;62.63;;;12.88;;
18752;SDS011;9505;50.882;5.350;2024-02-21T03:11:08;85.03;;;12.10;;
18752;SDS011;9505;50.882;5.350;2024-02-21T03:13:34;59.58;;;10.25;;
18752;SDS011;9505;50.882;5.350;2024-02-21T03:15:59;52.08;;;10.13;;
18752;SDS011;9505;50.882;5.350;2024-02-21T03:18:25;58.40;;;10.38;;
18752;SDS011;9505;50.882;5.350;2024-02-21T03:20:50;50.53;;;10.05;;
18752;SDS011;9505;50.882;5.350;2024-02-21T03:23:16;44.75;;;10.38;;
18752;SDS011;9505;50.882;5.350;2024-02-21T03:25:41;53.08;;;10.60;;
18752;SDS011;9505;50.882;5.350;2024-02-21T03:28:07;61.25;;;11.65;;
18752;SDS011;9505;50.882;5.350;2024-02-21T03:30:33;52.60;;;16.75;;
18752;SDS011;9505;50.882;5.350;2024-02-21T03:32:59;54.50;;;10.63;;
18752;SDS011;9505;50.882;5.350;2024-02-21T03:35:24;40.80;;;8.63;;
18752;SDS011;9505;50.882;5.350;2024-02-21T03:37:52;38.17;;;8.52;;
18752;SDS011;9505;50.882;5.350;2024-02-21T03:40:18;49.63;;;9.80;;
18752;SDS011;9505;50.882;5.350;2024-02-21T03:42:43;41.50;;;9.32;;
18752;SDS011;9505;50.882;5.350;2024-02-21T03:45:09;40.75;;;8.63;;
18752;SDS011;9505;50.882;5.350;2024-02-21T03:47:34;40.88;;;9.40;;
18752;SDS011;9505;50.882;5.350;2024-02-21T03:50:00;36.97;;;8.07;;
18752;SDS011;9505;50.882;5.350;2024-02-21T03:52:26;56.65;;;10.57;;
18752;SDS011;9505;50.882;5.350;2024-02-21T03:54:51;47.25;;;10.07;;
18752;SDS011;9505;50.882;5.350;2024-02-21T03:57:17;54.33;;;10.40;;
18752;SDS011;9505;50.882;5.350;2024-02-21T03:59:42;54.35;;;12.93;;
18752;SDS011;9505;50.882;5.350;2024-02-21T04:02:08;40.38;;;8.88;;
18752;SDS011;9505;50.882;5.350;2024-02-21T04:04:34;45.55;;;8.82;;
18752;SDS011;9505;50.882;5.350;2024-02-21T04:07:02;56.90;;;9.93;;
18752;SDS011;9505;50.882;5.350;2024-02-21T04:09:32;38.17;;;9.63;;
18752;SDS011;9505;50.882;5.350;2024-02-21T04:12:00;31.13;;;8.45;;
18752;SDS011;9505;50.882;5.350;2024-02-21T04:14:26;44.22;;;10.18;;
18752;SDS011;9505;50.882;5.350;2024-02-21T04:16:51;51.97;;;9.95;;
18752;SDS011;9505;50.882;5.350;2024-02-21T04:19:17;37.60;;;9.85;;
18752;SDS011;9505;50.882;5.350;2024-02-21T04:21:43;42.03;;;10.07;;
18752;SDS011;9505;50.882;5.350;2024-02-21T04:24:09;42.03;;;8.52;;
18752;SDS011;9505;50.882;5.350;2024-02-21T04:26:35;50.33;;;9.82;;
18752;SDS011;9505;50.882;5.350;2024-02-21T04:29:01;34.10;;;9.20;;
18752;SDS011;9505;50.882;5.350;2024-02-21T04:31:26;40.35;;;8.57;;
18752;SDS011;9505;50.882;5.350;2024-02-21T04:33:52;47.03;;;9.25;;
18752;SDS011;9505;50.882;5.350;2024-02-21T04:36:17;50.75;;;9.57;;
18752;SDS011;9505;50.882;5.350;2024-02-21T04:38:43;52.13;;;10.98;;
18752;SDS011;9505;50.882;5.350;2024-02-21T04:41:08;48.53;;;9.25;;
18752;SDS011;9505;50.882;5.350;2024-02-21T04:43:34;56.30;;;9.70;;
18752;SDS011;9505;50.882;5.350;2024-02-21T04:46:00;52.00;;;15.82;;
18752;SDS011;9505;50.882;5.350;2024-02-21T04:48:26;46.22;;;8.88;;
18752;SDS011;9505;50.882;5.350;2024-02-21T04:50:51;57.55;;;10.45;;
18752;SDS011;9505;50.882;5.350;2024-02-21T04:53:17;37.03;;;8.93;;
18752;SDS011;9505;50.882;5.350;2024-02-21T04:55:43;41.95;;;8.70;;
18752;SDS011;9505;50.882;5.350;2024-02-21T04:58:09;54.80;;;9.93;;
18752;SDS011;9505;50.882;5.350;2024-02-21T05:00:35;42.90;;;9.23;;
18752;SDS011;9505;50.882;5.350;2024-02-21T05:03:00;51.10;;;10.00;;
18752;SDS011;9505;50.882;5.350;2024-02-21T05:05:26;40.45;;;10.27;;
18752;SDS011;9505;50.882;5.350;2024-02-21T05:07:51;45.25;;;9.35;;
18752;SDS011;9505;50.882;5.350;2024-02-21T05:10:17;52.05;;;9.15;;
18752;SDS011;9505;50.882;5.350;2024-02-21T05:12:44;35.22;;;8.02;;
18752;SDS011;9505;50.882;5.350;2024-02-21T05:15:10;43.08;;;8.85;;
18752;SDS011;9505;50.882;5.350;2024-02-21T05:17:35;40.60;;;8.57;;
18752;SDS011;9505;50.882;5.350;2024-02-21T05:20:01;41.83;;;8.68;;
18752;SDS011;9505;50.882;5.350;2024-02-21T05:22:26;48.88;;;8.68;;
18752;SDS011;9505;50.882;5.350;2024-02-21T05:24:52;56.13;;;9.68;;
18752;SDS011;9505;50.882;5.350;2024-02-21T05:27:17;52.38;;;9.90;;
18752;SDS011;9505;50.882;5.350;2024-02-21T05:29:43;51.28;;;9.57;;
18752;SDS011;9505;50.882;5.350;2024-02-21T05:32:09;50.20;;;9.93;;
18752;SDS011;9505;50.882;5.350;2024-02-21T05:34:35;48.55;;;10.07;;
18752;SDS011;9505;50.882;5.350;2024-02-21T05:37:00;48.10;;;10.07;;
18752;SDS011;9505;50.882;5.350;2024-02-21T05:39:26;69.38;;;20.20;;
18752;SDS011;9505;50.882;5.350;2024-02-21T05:41:52;38.72;;;8.32;;
18752;SDS011;9505;50.882;5.350;2024-02-21T05:44:18;55.75;;;9.57;;
18752;SDS011;9505;50.882;5.350;2024-02-21T05:46:44;45.70;;;9.23;;
18752;SDS011;9505;50.882;5.350;2024-02-21T05:49:10;45.72;;;8.88;;
18752;SDS011;9505;50.882;5.350;2024-02-21T05:51:35;33.92;;;7.88;;
18752;SDS011;9505;50.882;5.350;2024-02-21T05:54:01;47.45;;;9.07;;
18752;SDS011;9505;50.882;5.350;2024-02-21T05:56:27;41.40;;;8.60;;
18752;SDS011;9505;50.882;5.350;2024-02-21T05:58:53;51.65;;;10.88;;
18752;SDS011;9505;50.882;5.350;2024-02-21T06:01:19;45.28;;;9.35;;
18752;SDS011;9505;50.882;5.350;2024-02-21T06:03:46;45.05;;;9.77;;
18752;SDS011;9505;50.882;5.350;2024-02-21T06:06:12;46.38;;;9.27;;
18752;SDS011;9505;50.882;5.350;2024-02-21T06:08:40;53.97;;;9.70;;
18752;SDS011;9505;50.882;5.350;2024-02-21T06:11:06;43.10;;;9.98;;
18752;SDS011;9505;50.882;5.350;2024-02-21T06:13:31;41.42;;;9.43;;
18752;SDS011;9505;50.882;5.350;2024-02-21T06:15:57;35.33;;;10.75;;
18752;SDS011;9505;50.882;5.350;2024-02-21T06:18:22;33.30;;;10.27;;
18752;SDS011;9505;50.882;5.350;2024-02-21T06:20:48;48.60;;;10.40;;
18752;SDS011;9505;50.882;5.350;2024-02-21T06:23:15;47.25;;;11.02;;
18752;SDS011;9505;50.882;5.350;2024-02-21T06:25:44;56.58;;;10.48;;
18752;SDS011;9505;50.882;5.350;2024-02-21T06:28:11;36.50;;;9.13;;
18752;SDS011;9505;50.882;5.350;2024-02-21T06:30:36;58.55;;;11.50;;
18752;SDS011;9505;50.882;5.350;2024-02-21T06:33:02;49.08;;;11.57;;
18752;SDS011;9505;50.882;5.350;2024-02-21T06:35:28;46.70;;;12.77;;
18752;SDS011;9505;50.882;5.350;2024-02-21T06:37:54;40.08;;;9.70;;
18752;SDS011;9505;50.882;5.350;2024-02-21T06:40:21;44.33;;;8.93;;
18752;SDS011;9505;50.882;5.350;2024-02-21T06:42:47;61.22;;;10.57;;
18752;SDS011;9505;50.882;5.350;2024-02-21T06:45:13;44.05;;;9.40;;
18752;SDS011;9505;50.882;5.350;2024-02-21T06:47:38;45.47;;;10.32;;
18752;SDS011;9505;50.882;5.350;2024-02-21T06:50:04;27.77;;;8.20;;
18752;SDS011;9505;50.882;5.350;2024-02-21T06:52:30;32.67;;;7.82;;
18752;SDS011;9505;50.882;5.350;2024-02-21T06:54:56;33.40;;;8.25;;
18752;SDS011;9505;50.882;5.350;2024-02-21T06:57:22;30.30;;;7.78;;
18752;SDS011;9505;50.882;5.350;2024-02-21T06:59:47;49.95;;;9.48;;
18752;SDS011;9505;50.882;5.350;2024-02-21T07:02:13;53.92;;;9.80;;
18752;SDS011;9505;50.882;5.350;2024-02-21T07:04:39;56.17;;;10.07;;
18752;SDS011;9505;50.882;5.350;2024-02-21T07:07:04;51.40;;;9.60;;
18752;SDS011;9505;50.882;5.350;2024-02-21T07:09:30;50.00;;;9.98;;
18752;SDS011;9505;50.882;5.350;2024-02-21T07:11:57;48.80;;;8.77;;
18752;SDS011;9505;50.882;5.350;2024-02-21T07:14:23;63.88;;;11.35;;
18752;SDS011;9505;50.882;5.350;2024-02-21T07:16:49;45.72;;;10.80;;
18752;SDS011;9505;50.882;5.350;2024-02-21T07:19:15;40.80;;;8.73;;
18752;SDS011;9505;50.882;5.350;2024-02-21T07:21:40;34.95;;;8.52;;
18752;SDS011;9505;50.882;5.350;2024-02-21T07:24:09;69.43;;;10.88;;
18752;SDS011;9505;50.882;5.350;2024-02-21T07:26:34;30.80;;;8.43;;
18752;SDS011;9505;50.882;5.350;2024-02-21T07:29:00;47.70;;;13.10;;
18752;SDS011;9505;50.882;5.350;2024-02-21T07:31:26;48.05;;;9.50;;
18752;SDS011;9505;50.882;5.350;2024-02-21T07:33:51;30.83;;;7.93;;
18752;SDS011;9505;50.882;5.350;2024-02-21T07:36:25;34.17;;;8.27;;
18752;SDS011;9505;50.882;5.350;2024-02-21T07:38:53;43.97;;;9.88;;
18752;SDS011;9505;50.882;5.350;2024-02-21T07:41:19;40.55;;;9.32;;
18752;SDS011;9505;50.882;5.350;2024-02-21T07:43:44;41.30;;;9.55;;
18752;SDS011;9505;50.882;5.350;2024-02-21T07:46:10;40.58;;;8.38;;
18752;SDS011;9505;50.882;5.350;2024-02-21T07:48:35;40.88;;;9.98;;
18752;SDS011;9505;50.882;5.350;2024-02-21T07:51:01;46.67;;;8.82;;
18752;SDS011;9505;50.882;5.350;2024-02-21T07:53:27;33.65;;;7.22;;
18752;SDS011;9505;50.882;5.350;2024-02-21T07:55:53;52.08;;;9.52;;
18752;SDS011;9505;50.882;5.350;2024-02-21T07:58:18;33.55;;;7.88;;
18752;SDS011;9505;50.882;5.350;2024-02-21T08:00:44;39.25;;;7.45;;
18752;SDS011;9505;50.882;5.350;2024-02-21T08:03:10;32.72;;;7.45;;
18752;SDS011;9505;50.882;5.350;2024-02-21T08:05:35;24.05;;;6.95;;
18752;SDS011;9505;50.882;5.350;2024-02-21T08:08:01;40.20;;;6.97;;
18752;SDS011;9505;50.882;5.350;2024-02-21T08:10:28;27.08;;;6.05;;
18752;SDS011;9505;50.882;5.350;2024-02-21T08:12:53;33.40;;;6.63;;
18752;SDS011;9505;50.882;5.350;2024-02-21T08:15:19;20.15;;;6.10;;
18752;SDS011;9505;50.882;5.350;2024-02-21T08:17:49;40.60;;;7.65;;
18752;SDS011;9505;50.882;5.350;2024-02-21T08:20:14;25.45;;;6.10;;
18752;SDS011;9505;50.882;5.350;2024-02-21T08:22:40;24.67;;;5.40;;
18752;SDS011;9505;50.882;5.350;2024-02-21T08:25:06;32.45;;;6.93;;
18752;SDS011;9505;50.882;5.350;2024-02-21T08:27:31;28.52;;;6.20;;
18752;SDS011;9505;50.882;5.350;2024-02-21T08:29:57;31.77;;;7.05;;
18752;SDS011;9505;50.882;5.350;2024-02-21T08:32:22;27.98;;;5.68;;
18752;SDS011;9505;50.882;5.350;2024-02-21T08:34:48;25.15;;;5.82;;
18752;SDS011;9505;50.882;5.350;2024-02-21T08:37:13;20.48;;;5.60;;
18752;SDS011;9505;50.882;5.350;2024-02-21T08:39:39;22.05;;;5.65;;
18752;SDS011;9505;50.882;5.350;2024-02-21T08:42:05;29.77;;;5.63;;
18752;SDS011;9505;50.882;5.350;2024-02-21T08:44:30;24.48;;;5.05;;
18752;SDS011;9505;50.882;5.350;2024-02-21T08:46:56;35.17;;;5.70;;
18752;SDS011;9505;50.882;5.350;2024-02-21T08:49:22;35.45;;;5.95;;
18752;SDS011;9505;50.882;5.350;2024-02-21T08:51:47;31.80;;;5.95;;
18752;SDS011;9505;50.882;5.350;2024-02-21T08:54:13;22.58;;;5.15;;
18752;SDS011;9505;50.882;5.350;2024-02-21T08:56:39;27.98;;;5.47;;
18752;SDS011;9505;50.882;5.350;2024-02-21T08:59:04;25.92;;;5.38;;
18752;SDS011;9505;50.882;5.350;2024-02-21T09:01:30;33.75;;;5.53;;
18752;SDS011;9505;50.882;5.350;2024-02-21T09:03:55;28.35;;;5.55;;
18752;SDS011;9505;50.882;5.350;2024-02-21T09:06:21;19.48;;;5.38;;
18752;SDS011;9505;50.882;5.350;2024-02-21T09:08:48;27.60;;;5.13;;
18752;SDS011;9505;50.882;5.350;2024-02-21T09:11:14;24.40;;;5.13;;
18752;SDS011;9505;50.882;5.350;2024-02-21T09:13:40;29.23;;;5.43;;
18752;SDS011;9505;50.882;5.350;2024-02-21T09:16:05;24.67;;;4.55;;
18752;SDS011;9505;50.882;5.350;2024-02-21T09:18:31;26.67;;;4.75;;
18752;SDS011;9505;50.882;5.350;2024-02-21T09:20:57;30.38;;;6.32;;
18752;SDS011;9505;50.882;5.350;2024-02-21T09:23:26;29.50;;;5.07;;
18752;SDS011;9505;50.882;5.350;2024-02-21T09:25:52;28.45;;;5.30;;
18752;SDS011;9505;50.882;5.350;2024-02-21T09:28:17;37.58;;;6.35;;
18752;SDS011;9505;50.882;5.350;2024-02-21T09:30:44;32.20;;;5.03;;
18752;SDS011;9505;50.882;5.350;2024-02-21T09:33:09;37.72;;;5.57;;
18752;SDS011;9505;50.882;5.350;2024-02-21T09:35:35;33.00;;;5.25;;
18752;SDS011;9505;50.882;5.350;2024-02-21T09:38:01;42.13;;;6.55;;
18752;SDS011;9505;50.882;5.350;2024-02-21T09:40:26;43.20;;;6.93;;
18752;SDS011;9505;50.882;5.350;2024-02-21T09:42:56;31.92;;;5.40;;
18752;SDS011;9505;50.882;5.350;2024-02-21T09:45:32;50.08;;;6.68;;
18752;SDS011;9505;50.882;5.350;2024-02-21T09:50:53;24.42;;;4.97;;
18752;SDS011;9505;50.882;5.350;2024-02-21T09:53:22;26.08;;;5.15;;
18752;SDS011;9505;50.882;5.350;2024-02-21T09:55:50;31.35;;;5.85;;
18752;SDS011;9505;50.882;5.350;2024-02-21T09:58:16;28.33;;;5.15;;
18752;SDS011;9505;50.882;5.350;2024-02-21T10:00:42;30.10;;;5.38;;
18752;SDS011;9505;50.882;5.350;2024-02-21T10:03:07;37.05;;;6.45;;
18752;SDS011;9505;50.882;5.350;2024-02-21T10:05:34;32.05;;;6.18;;
18752;SDS011;9505;50.882;5.350;2024-02-21T10:08:00;29.05;;;5.65;;
18752;SDS011;9505;50.882;5.350;2024-02-21T10:10:26;29.42;;;5.72;;
18752;SDS011;9505;50.882;5.350;2024-02-21T10:12:52;29.08;;;6.00;;
18752;SDS011;9505;50.882;5.350;2024-02-21T10:15:23;31.63;;;5.63;;
18752;SDS011;9505;50.882;5.350;2024-02-21T10:17:52;41.50;;;6.28;;
18752;SDS011;9505;50.882;5.350;2024-02-21T10:20:23;24.23;;;4.53;;
18752;SDS011;9505;50.882;5.350;2024-02-21T10:22:59;29.40;;;5.22;;
18752;SDS011;9505;50.882;5.350;2024-02-21T10:25:33;29.55;;;5.05;;
18752;SDS011;9505;50.882;5.350;2024-02-21T10:27:59;38.28;;;5.90;;
18752;SDS011;9505;50.882;5.350;2024-02-21T10:30:25;29.42;;;5.78;;
18752;SDS011;9505;50.882;5.350;2024-02-21T10:32:51;39.80;;;5.90;;
18752;SDS011;9505;50.882;5.350;2024-02-21T10:35:30;32.17;;;5.30;;
18752;SDS011;9505;50.882;5.350;2024-02-21T10:37:57;29.77;;;5.25;;
18752;SDS011;9505;50.882;5.350;2024-02-21T10:40:27;32.25;;;5.50;;
18752;SDS011;9505;50.882;5.350;2024-02-21T10:42:57;34.42;;;5.18;;
18752;SDS011;9505;50.882;5.350;2024-02-21T10:45:31;35.00;;;6.13;;
18752;SDS011;9505;50.882;5.350;2024-02-21T10:48:12;30.02;;;5.43;;
18752;SDS011;9505;50.882;5.350;2024-02-21T10:56:38;34.17;;;6.20;;
18752;SDS011;9505;50.882;5.350;2024-02-21T10:59:05;31.70;;;6.35;;
18752;SDS011;9505;50.882;5.350;2024-02-21T11:01:32;24.65;;;5.25;;
18752;SDS011;9505;50.882;5.350;2024-02-21T11:03:58;33.20;;;6.00;;
18752;SDS011;9505;50.882;5.350;2024-02-21T11:06:27;34.67;;;5.72;;
18752;SDS011;9505;50.882;5.350;2024-02-21T11:09:09;42.08;;;6.55;;
18752;SDS011;9505;50.882;5.350;2024-02-21T11:11:39;22.33;;;4.80;;
18752;SDS011;9505;50.882;5.350;2024-02-21T11:14:18;36.95;;;6.10;;
18752;SDS011;9505;50.882;5.350;2024-02-21T11:16:46;22.40;;;5.05;;
18752;SDS011;9505;50.882;5.350;2024-02-21T11:21:44;29.58;;;5.82;;
18752;SDS011;9505;50.882;5.350;2024-02-21T11:24:10;47.03;;;6.32;;
18752;SDS011;9505;50.882;5.350;2024-02-21T11:26:39;27.70;;;5.85;;
18752;SDS011;9505;50.882;5.350;2024-02-21T11:29:07;35.80;;;6.10;;
18752;SDS011;9505;50.882;5.350;2024-02-21T11:31:38;21.50;;;5.28;;
18752;SDS011;9505;50.882;5.350;2024-02-21T11:34:12;43.47;;;7.85;;
18752;SDS011;9505;50.882;5.350;2024-02-21T11:36:48;35.55;;;5.65;;
18752;SDS011;9505;50.882;5.350;2024-02-21T11:39:24;45.58;;;6.20;;
18752;SDS011;9505;50.882;5.350;2024-02-21T11:44:26;31.95;;;5.25;;
18752;SDS011;9505;50.882;5.350;2024-02-21T11:46:52;27.75;;;4.78;;
18752;SDS011;9505;50.882;5.350;2024-02-21T11:49:17;27.00;;;5.00;;
18752;SDS011;9505;50.882;5.350;2024-02-21T11:51:43;49.40;;;6.57;;
18752;SDS011;9505;50.882;5.350;2024-02-21T11:54:10;29.85;;;5.15;;
18752;SDS011;9505;50.882;5.350;2024-02-21T11:56:38;30.88;;;6.22;;
18752;SDS011;9505;50.882;5.350;2024-02-21T11:59:04;36.13;;;6.65;;
18752;SDS011;9505;50.882;5.350;2024-02-21T12:01:31;19.05;;;4.40;;
18752;SDS011;9505;50.882;5.350;2024-02-21T12:03:57;41.30;;;6.32;;
18752;SDS011;9505;50.882;5.350;2024-02-21T12:06:22;37.75;;;5.93;;
18752;SDS011;9505;50.882;5.350;2024-02-21T12:08:48;34.15;;;5.85;;
18752;SDS011;9505;50.882;5.350;2024-02-21T12:11:21;29.15;;;5.00;;
18752;SDS011;9505;50.882;5.350;2024-02-21T12:13:57;32.22;;;5.40;;
18752;SDS011;9505;50.882;5.350;2024-02-21T12:16:28;31.58;;;5.07;;
18752;SDS011;9505;50.882;5.350;2024-02-21T12:18:55;18.20;;;4.03;;
18752;SDS011;9505;50.882;5.350;2024-02-21T12:21:25;22.73;;;4.03;;
18752;SDS011;9505;50.882;5.350;2024-02-21T12:23:58;23.40;;;4.10;;
18752;SDS011;9505;50.882;5.350;2024-02-21T12:26:24;24.05;;;4.05;;
18752;SDS011;9505;50.882;5.350;2024-02-21T12:28:51;29.10;;;5.28;;
18752;SDS011;9505;50.882;5.350;2024-02-21T12:31:18;33.58;;;4.78;;
18752;SDS011;9505;50.882;5.350;2024-02-21T12:33:44;26.52;;;4.88;;
18752;SDS011;9505;50.882;5.350;2024-02-21T12:36:09;70.53;;;7.90;;
18752;SDS011;9505;50.882;5.350;2024-02-21T12:38:36;62.70;;;7.20;;
18752;SDS011;9505;50.882;5.350;2024-02-21T12:41:01;60.75;;;7.03;;
18752;SDS011;9505;50.882;5.350;2024-02-21T12:43:28;53.30;;;6.40;;
18752;SDS011;9505;50.882;5.350;2024-02-21T12:45:54;32.72;;;4.60;;
18752;SDS011;9505;50.882;5.350;2024-02-21T12:48:19;24.02;;;3.42;;
18752;SDS011;9505;50.882;5.350;2024-02-21T12:50:48;68.25;;;7.57;;
18752;SDS011;9505;50.882;5.350;2024-02-21T12:53:20;74.47;;;8.15;;
18752;SDS011;9505;50.882;5.350;2024-02-21T12:55:47;66.95;;;7.32;;
18752;SDS011;9505;50.882;5.350;2024-02-21T12:58:14;76.18;;;8.48;;
18752;SDS011;9505;50.882;5.350;2024-02-21T13:00:40;39.50;;;4.97;;
18752;SDS011;9505;50.882;5.350;2024-02-21T13:03:06;38.60;;;4.78;;
18752;SDS011;9505;50.882;5.350;2024-02-21T13:05:32;62.53;;;6.72;;
18752;SDS011;9505;50.882;5.350;2024-02-21T13:07:58;90.85;;;9.20;;
18752;SDS011;9505;50.882;5.350;2024-02-21T13:10:24;63.95;;;7.00;;
18752;SDS011;9505;50.882;5.350;2024-02-21T13:12:50;33.55;;;4.57;;
18752;SDS011;9505;50.882;5.350;2024-02-21T13:15:16;30.95;;;3.90;;
18752;SDS011;9505;50.882;5.350;2024-02-21T13:17:45;78.28;;;8.25;;
18752;SDS011;9505;50.882;5.350;2024-02-21T13:20:11;76.25;;;7.65;;
18752;SDS011;9505;50.882;5.350;2024-02-21T13:22:37;71.72;;;7.32;;
18752;SDS011;9505;50.882;5.350;2024-02-21T13:25:03;26.15;;;3.67;;
18752;SDS011;9505;50.882;5.350;2024-02-21T13:27:32;31.13;;;3.88;;
18752;SDS011;9505;50.882;5.350;2024-02-21T13:29:58;51.20;;;5.57;;
18752;SDS011;9505;50.882;5.350;2024-02-21T13:32:25;67.05;;;7.20;;
18752;SDS011;9505;50.882;5.350;2024-02-21T13:34:52;58.63;;;6.53;;
18752;SDS011;9505;50.882;5.350;2024-02-21T13:37:20;53.92;;;6.25;;
18752;SDS011;9505;50.882;5.350;2024-02-21T13:39:46;38.58;;;4.13;;
18752;SDS011;9505;50.882;5.350;2024-02-21T13:42:12;63.15;;;6.90;;
18752;SDS011;9505;50.882;5.350;2024-02-21T13:44:38;70.65;;;7.57;;
18752;SDS011;9505;50.882;5.350;2024-02-21T13:47:04;56.33;;;5.85;;
18752;SDS011;9505;50.882;5.350;2024-02-21T13:49:30;22.63;;;3.50;;
18752;SDS011;9505;50.882;5.350;2024-02-21T13:51:56;51.50;;;5.63;;
18752;SDS011;9505;50.882;5.350;2024-02-21T13:54:21;118.53;;;11.60;;
18752;SDS011;9505;50.882;5.350;2024-02-21T13:56:47;63.10;;;7.13;;
18752;SDS011;9505;50.882;5.350;2024-02-21T13:59:12;27.10;;;3.58;;
18752;SDS011;9505;50.882;5.350;2024-02-21T14:01:38;45.75;;;5.38;;
18752;SDS011;9505;50.882;5.350;2024-02-21T14:04:04;68.53;;;7.07;;
18752;SDS011;9505;50.882;5.350;2024-02-21T14:06:30;69.53;;;7.22;;
18752;SDS011;9505;50.882;5.350;2024-02-21T14:08:56;48.60;;;5.90;;
18752;SDS011;9505;50.882;5.350;2024-02-21T14:11:22;45.90;;;5.68;;
18752;SDS011;9505;50.882;5.350;2024-02-21T14:13:48;112.28;;;11.05;;
18752;SDS011;9505;50.882;5.350;2024-02-21T14:16:13;64.03;;;7.13;;
18752;SDS011;9505;50.882;5.350;2024-02-21T14:18:39;43.38;;;4.85;;
18752;SDS011;9505;50.882;5.350;2024-02-21T14:21:08;35.83;;;4.38;;
18752;SDS011;9505;50.882;5.350;2024-02-21T14:23:36;29.95;;;4.32;;
18752;SDS011;9505;50.882;5.350;2024-02-21T14:26:02;34.60;;;4.93;;
18752;SDS011;9505;50.882;5.350;2024-02-21T14:28:28;49.40;;;5.45;;
18752;SDS011;9505;50.882;5.350;2024-02-21T14:30:54;45.95;;;5.35;;
18752;SDS011;9505;50.882;5.350;2024-02-21T14:33:22;29.75;;;4.00;;
18752;SDS011;9505;50.882;5.350;2024-02-21T14:35:51;27.00;;;3.88;;
18752;SDS011;9505;50.882;5.350;2024-02-21T14:38:17;34.67;;;4.70;;
18752;SDS011;9505;50.882;5.350;2024-02-21T14:40:46;26.05;;;4.10;;
18752;SDS011;9505;50.882;5.350;2024-02-21T14:43:11;32.30;;;4.53;;
18752;SDS011;9505;50.882;5.350;2024-02-21T14:45:37;22.20;;;3.67;;
18752;SDS011;9505;50.882;5.350;2024-02-21T14:48:04;18.13;;;3.28;;
18752;SDS011;9505;50.882;5.350;2024-02-21T14:50:30;30.63;;;4.40;;
18752;SDS011;9505;50.882;5.350;2024-02-21T14:52:55;34.42;;;4.85;;